createdAt,value
2018-10-09T00:00:06.427Z,18.40
2018-10-09T00:02:35.084Z,19.07
2018-10-09T00:05:03.777Z,21.77
2018-10-09T00:07:32.538Z,18.97
2018-10-09T00:10:01.019Z,19.67
2018-10-09T00:12:29.699Z,18.57
2018-10-09T00:14:58.160Z,17.90
2018-10-09T00:17:26.640Z,17.50
2018-10-09T00:19:55.078Z,19.20
2018-10-09T00:22:24.114Z,16.47
2018-10-09T00:24:52.757Z,20.27
2018-10-09T00:27:21.369Z,18.67
2018-10-09T00:29:50.158Z,16.97
2018-10-09T00:32:18.826Z,17.10
2018-10-09T00:34:47.371Z,17.30
2018-10-09T00:37:15.905Z,17.67
2018-10-09T00:39:45.004Z,18.90
2018-10-09T00:42:13.467Z,17.30
2018-10-09T00:44:42.021Z,18.47
2018-10-09T00:47:10.557Z,20.53
2018-10-09T00:49:39.121Z,20.70
2018-10-09T00:52:08.805Z,19.10
2018-10-09T00:54:37.691Z,20.27
2018-10-09T00:57:06.633Z,22.73
2018-10-09T00:59:35.440Z,22.47
2018-10-09T01:02:04.085Z,20.50
2018-10-09T01:04:33.120Z,20.20
2018-10-09T01:07:01.707Z,19.63
2018-10-09T01:09:30.436Z,19.33
2018-10-09T01:11:59.020Z,21.77
2018-10-09T01:14:27.637Z,20.83
2018-10-09T01:16:56.139Z,22.77
2018-10-09T01:19:25.145Z,20.50
2018-10-09T01:21:53.598Z,20.27
2018-10-09T01:24:22.228Z,20.60
2018-10-09T01:26:50.741Z,18.60
2018-10-09T01:29:19.256Z,22.87
2018-10-09T01:31:47.716Z,20.83
2018-10-09T01:34:16.526Z,21.30
2018-10-09T01:36:45.073Z,20.03
2018-10-09T01:39:13.576Z,22.87
2018-10-09T01:41:42.135Z,22.60
2018-10-09T01:44:13.747Z,19.47
2018-10-09T01:46:42.305Z,19.87
2018-10-09T01:49:11.007Z,19.47
2018-10-09T01:51:39.672Z,19.73
2018-10-09T01:54:08.585Z,19.70
2018-10-09T01:56:37.638Z,19.60
2018-10-09T01:59:06.690Z,20.77
2018-10-09T02:01:35.884Z,20.13
2018-10-09T02:04:04.401Z,16.97
2018-10-09T02:06:32.919Z,17.73
2018-10-09T02:09:01.421Z,21.37
2018-10-09T02:11:29.956Z,20.80
2018-10-09T02:13:58.610Z,18.97
2018-10-09T02:16:27.214Z,22.13
2018-10-09T02:18:55.689Z,17.00
2018-10-09T02:21:24.223Z,19.90
2018-10-09T02:23:52.697Z,21.00
2018-10-09T02:26:21.339Z,21.13
2018-10-09T02:28:49.806Z,16.77
2018-10-09T02:31:18.263Z,20.03
2018-10-09T02:33:47.143Z,18.73
2018-10-09T02:36:15.441Z,20.17
2018-10-09T02:38:44.156Z,20.93
2018-10-09T02:41:12.640Z,21.33
2018-10-09T02:43:41.716Z,16.67
2018-10-09T02:46:10.448Z,19.10
2018-10-09T02:48:38.904Z,20.63
2018-10-09T02:51:08.401Z,20.43
2018-10-09T02:53:36.872Z,19.13
2018-10-09T02:56:05.496Z,21.10
2018-10-09T02:58:34.038Z,19.63
2018-10-09T03:01:02.508Z,21.70
2018-10-09T03:03:31.080Z,18.07
2018-10-09T03:05:59.582Z,16.93
2018-10-09T03:08:28.795Z,18.10
2018-10-09T03:10:57.360Z,20.23
2018-10-09T03:13:26.285Z,20.77
2018-10-09T03:15:54.983Z,18.60
2018-10-09T03:18:23.542Z,20.53
2018-10-09T03:20:52.115Z,19.10
2018-10-09T03:23:20.606Z,22.87
2018-10-09T03:25:49.098Z,21.53
2018-10-09T03:28:18.165Z,20.23
2018-10-09T03:30:46.627Z,22.03
2018-10-09T03:33:15.109Z,19.63
2018-10-09T03:35:44.475Z,21.00
2018-10-09T03:38:13.108Z,23.27
2018-10-09T03:40:41.962Z,23.00
2018-10-09T03:43:10.678Z,22.40
2018-10-09T03:45:39.220Z,22.53
2018-10-09T03:48:07.792Z,22.07
2018-10-09T03:50:36.410Z,21.13
2018-10-09T03:53:04.990Z,23.43
2018-10-09T03:55:33.847Z,23.57
2018-10-09T03:58:02.425Z,22.03
2018-10-09T04:00:30.886Z,23.43
2018-10-09T04:02:59.567Z,22.33
2018-10-09T04:05:28.730Z,20.53
2018-10-09T04:07:57.603Z,19.63
2018-10-09T04:10:26.145Z,19.77
2018-10-09T04:12:54.789Z,23.00
2018-10-09T04:15:23.397Z,18.83
2018-10-09T04:17:51.961Z,20.40
2018-10-09T04:20:20.470Z,24.67
2018-10-09T04:22:49.160Z,29.50
2018-10-09T04:25:18.034Z,26.37
2018-10-09T04:27:47.355Z,21.93
2018-10-09T04:30:15.821Z,22.93
2018-10-09T04:32:44.463Z,19.73
2018-10-09T04:35:12.952Z,21.27
2018-10-09T04:37:41.425Z,20.90
2018-10-09T04:40:10.927Z,21.90
2018-10-09T04:42:39.527Z,21.57
2018-10-09T04:45:08.122Z,15.87
2018-10-09T04:47:36.844Z,21.60
2018-10-09T04:50:05.553Z,21.33
2018-10-09T04:52:34.004Z,18.00
2018-10-09T04:55:02.583Z,21.37
2018-10-09T04:57:31.522Z,21.40
2018-10-09T05:00:00.304Z,19.30
2018-10-09T05:02:29.170Z,20.40
2018-10-09T05:04:57.709Z,24.73
2018-10-09T05:07:26.262Z,25.07
2018-10-09T05:09:54.748Z,26.37
2018-10-09T05:12:23.197Z,24.03
2018-10-09T05:14:51.958Z,21.10
2018-10-09T05:17:20.795Z,25.70
2018-10-09T05:19:49.403Z,21.50
2018-10-09T05:22:17.944Z,21.07
2018-10-09T05:24:46.412Z,26.97
2018-10-09T05:27:15.076Z,23.83
2018-10-09T05:29:43.617Z,24.60
2018-10-09T05:32:12.165Z,22.67
2018-10-09T05:34:40.715Z,27.20
2018-10-09T05:37:09.420Z,21.43
2018-10-09T05:39:38.083Z,23.93
2018-10-09T05:42:07.378Z,20.90
2018-10-09T05:44:35.942Z,22.60
2018-10-09T05:47:04.600Z,24.03
2018-10-09T05:49:33.028Z,20.33
2018-10-09T05:52:01.516Z,22.70
2018-10-09T05:54:30.334Z,21.07
2018-10-09T05:56:58.783Z,21.13
2018-10-09T05:59:27.972Z,17.00
2018-10-09T06:01:56.785Z,20.83
2018-10-09T06:04:25.420Z,19.63
2018-10-09T06:06:54.521Z,22.40
2018-10-09T06:09:22.973Z,22.30
2018-10-09T06:11:52.184Z,21.93
2018-10-09T06:14:21.414Z,25.07
2018-10-09T06:16:50.075Z,20.17
2018-10-09T06:19:19.424Z,20.23
2018-10-09T06:21:48.008Z,20.87
2018-10-09T06:24:16.976Z,22.37
2018-10-09T06:26:45.503Z,21.10
2018-10-09T06:29:14.339Z,23.27
2018-10-09T06:31:42.860Z,19.43
2018-10-09T06:34:11.379Z,19.50
2018-10-09T06:36:39.826Z,20.43
2018-10-09T06:39:09.983Z,19.30
2018-10-09T06:41:39.042Z,23.97
2018-10-09T06:44:07.498Z,23.37
2018-10-09T06:46:36.034Z,17.43
2018-10-09T06:49:04.596Z,20.03
2018-10-09T06:51:33.170Z,24.73
2018-10-09T06:54:01.879Z,22.53
2018-10-09T06:56:30.276Z,23.70
2018-10-09T06:58:59.079Z,23.10
2018-10-09T07:01:27.765Z,21.63
2018-10-09T07:03:56.217Z,19.87
2018-10-09T07:06:24.890Z,21.53
2018-10-09T07:08:53.564Z,20.33
2018-10-09T07:11:22.985Z,17.77
2018-10-09T07:13:51.761Z,18.73
2018-10-09T07:16:20.504Z,19.00
2018-10-09T07:18:48.994Z,21.80
2018-10-09T07:21:18.502Z,22.17
2018-10-09T07:23:46.924Z,21.63
2018-10-09T07:26:16.259Z,22.10
2018-10-09T07:28:45.743Z,24.97
2018-10-09T07:31:14.420Z,23.03
2018-10-09T07:33:43.009Z,21.33
2018-10-09T07:36:11.444Z,20.70
2018-10-09T07:38:40.062Z,26.67
2018-10-09T07:41:08.595Z,30.90
2018-10-09T07:43:37.204Z,27.00
2018-10-09T07:46:05.778Z,31.97
2018-10-09T07:48:34.347Z,33.73
2018-10-09T07:51:02.851Z,36.77
2018-10-09T07:53:31.353Z,35.40
2018-10-09T07:55:59.843Z,39.77
2018-10-09T07:58:28.486Z,44.87
2018-10-09T08:00:57.330Z,46.57
2018-10-09T08:03:25.761Z,53.57
2018-10-09T08:05:54.353Z,54.30
2018-10-09T08:08:22.916Z,55.47
2018-10-09T08:10:51.494Z,58.30
2018-10-09T08:13:20.359Z,52.17
2018-10-09T08:15:49.532Z,51.63
2018-10-09T08:18:18.040Z,45.97
2018-10-09T08:20:46.772Z,45.47
2018-10-09T08:23:15.254Z,42.73
2018-10-09T08:25:43.739Z,43.27
2018-10-09T08:28:12.286Z,41.53
2018-10-09T08:30:40.834Z,38.97
2018-10-09T08:33:09.477Z,34.40
2018-10-09T08:35:38.106Z,32.70
2018-10-09T08:38:06.704Z,34.60
2018-10-09T08:40:35.253Z,38.40
2018-10-09T08:43:03.813Z,34.67
2018-10-09T08:45:33.219Z,39.63
2018-10-09T08:48:01.984Z,35.43
2018-10-09T08:50:30.441Z,36.40
2018-10-09T08:52:59.968Z,33.37
2018-10-09T08:55:28.510Z,33.80
2018-10-09T08:57:57.323Z,33.97
2018-10-09T09:00:25.899Z,36.53
2018-10-09T09:02:54.349Z,33.83
2018-10-09T09:05:22.957Z,32.40
2018-10-09T09:07:52.705Z,33.40
2018-10-09T09:10:21.177Z,31.10
2018-10-09T09:12:49.736Z,29.43
2018-10-09T09:15:18.342Z,28.77
2018-10-09T09:17:46.856Z,29.03
2018-10-09T09:20:15.460Z,24.87
2018-10-09T09:22:44.729Z,27.33
2018-10-09T09:25:13.277Z,27.77
2018-10-09T09:27:41.798Z,28.70
2018-10-09T09:30:10.594Z,28.67
2018-10-09T09:32:39.099Z,23.33
2018-10-09T09:35:07.644Z,22.00
2018-10-09T09:37:36.259Z,23.57
2018-10-09T09:40:04.895Z,26.63
2018-10-09T09:42:33.355Z,24.27
2018-10-09T09:45:02.124Z,26.53
2018-10-09T09:47:30.686Z,24.17
2018-10-09T09:49:59.234Z,23.50
2018-10-09T09:52:27.754Z,23.17
2018-10-09T09:54:56.255Z,25.43
2018-10-09T09:57:25.205Z,22.90
2018-10-09T09:59:54.437Z,22.70
2018-10-09T10:02:22.943Z,23.80
2018-10-09T10:04:51.542Z,26.17
2018-10-09T10:07:20.204Z,23.50
2018-10-09T10:09:48.662Z,25.93
2018-10-09T10:12:17.404Z,21.70
2018-10-09T10:14:46.034Z,24.50
2018-10-09T10:17:14.527Z,23.70
2018-10-09T10:19:43.377Z,23.13
2018-10-09T10:22:11.919Z,25.67
2018-10-09T10:24:40.585Z,24.77
2018-10-09T10:27:09.073Z,24.83
2018-10-09T10:29:37.731Z,24.60
2018-10-09T10:32:06.362Z,22.27
2018-10-09T10:34:35.205Z,25.68
2018-10-09T10:37:04.635Z,28.02
2018-10-09T10:39:33.306Z,24.63
2018-10-09T10:42:02.670Z,25.17
2018-10-09T10:44:31.349Z,25.10
2018-10-09T10:46:59.873Z,22.48
2018-10-09T10:49:28.587Z,25.32
2018-10-09T10:51:57.790Z,23.37
2018-10-09T10:54:26.654Z,26.33
2018-10-09T10:56:55.204Z,23.70
2018-10-09T10:59:23.807Z,24.00
2018-10-09T11:01:52.360Z,22.27
2018-10-09T11:04:20.970Z,25.70
2018-10-09T11:06:49.589Z,20.88
2018-10-09T11:09:18.211Z,25.92
2018-10-09T11:11:46.650Z,21.68
2018-10-09T11:14:15.187Z,25.05
2018-10-09T11:16:43.656Z,21.60
2018-10-09T11:19:12.398Z,23.80
2018-10-09T11:21:40.962Z,21.90
2018-10-09T11:24:09.473Z,24.30
2018-10-09T11:26:38.007Z,21.52
2018-10-09T11:29:07.423Z,22.07
2018-10-09T11:31:36.072Z,23.62
2018-10-09T11:34:05.001Z,24.53
2018-10-09T11:36:34.234Z,23.35
2018-10-09T11:39:06.626Z,22.32
2018-10-09T11:41:39.467Z,26.00
2018-10-09T11:44:08.040Z,26.05
2018-10-09T11:46:37.360Z,24.12
2018-10-09T11:49:06.668Z,24.35
2018-10-09T11:51:35.371Z,24.85
2018-10-09T11:54:04.151Z,23.15
2018-10-09T11:56:32.774Z,21.95
2018-10-09T11:59:01.637Z,24.30
2018-10-09T12:01:30.132Z,17.60
2018-10-09T12:03:58.713Z,22.00
2018-10-09T12:06:27.909Z,16.97
2018-10-09T12:08:56.652Z,21.20
2018-10-09T12:11:26.113Z,18.77
2018-10-09T12:13:54.753Z,20.68
2018-10-09T12:16:23.325Z,19.90
2018-10-09T12:18:52.620Z,26.48
2018-10-09T12:21:21.243Z,25.35
2018-10-09T12:23:51.286Z,22.07
2018-10-09T12:26:19.725Z,21.23
2018-10-09T12:28:48.566Z,26.70
2018-10-09T12:31:17.185Z,18.15
2018-10-09T12:33:45.759Z,21.40
2018-10-09T12:36:14.972Z,22.07
2018-10-09T12:38:43.637Z,21.00
2018-10-09T12:41:12.200Z,17.70
2018-10-09T12:43:41.075Z,19.35
2018-10-09T12:46:09.707Z,19.27
2018-10-09T12:48:38.186Z,19.50
2018-10-09T12:51:07.021Z,22.73
2018-10-09T12:53:35.756Z,17.98
2018-10-09T12:56:04.390Z,18.77
2018-10-09T12:58:33.065Z,19.80
2018-10-09T13:01:01.868Z,22.35
2018-10-09T13:03:30.348Z,20.72
2018-10-09T13:05:59.109Z,24.10
2018-10-09T13:08:27.820Z,18.62
2018-10-09T13:10:56.555Z,20.80
2018-10-09T13:13:25.196Z,20.27
2018-10-09T13:15:53.693Z,16.37
2018-10-09T13:18:22.243Z,14.55
2018-10-09T13:20:51.086Z,18.25
2018-10-09T13:23:19.476Z,15.68
2018-10-09T13:25:47.939Z,21.65
2018-10-09T13:28:16.564Z,18.48
2018-10-09T13:30:45.243Z,20.27
2018-10-09T13:33:14.414Z,18.00
2018-10-09T13:35:42.927Z,21.68
2018-10-09T13:38:18.075Z,19.35
2018-10-09T13:40:46.614Z,18.90
2018-10-09T13:43:15.303Z,18.20
2018-10-09T13:45:43.907Z,17.45
2018-10-09T13:48:12.918Z,14.70
2018-10-09T13:50:42.150Z,16.02
2018-10-09T13:53:11.447Z,13.28
2018-10-09T13:55:40.220Z,14.95
2018-10-09T13:58:08.803Z,18.12
2018-10-09T14:00:37.410Z,12.90
2018-10-09T14:03:07.889Z,12.95
2018-10-09T14:05:36.334Z,17.40
2018-10-09T14:08:04.777Z,16.25
2018-10-09T14:10:33.252Z,14.20
2018-10-09T14:13:01.990Z,15.63
2018-10-09T14:15:30.452Z,11.88
2018-10-09T14:17:58.907Z,13.20
2018-10-09T14:20:27.939Z,11.90
2018-10-09T14:22:56.685Z,15.78
2018-10-09T14:25:25.286Z,13.07
2018-10-09T14:27:53.872Z,12.30
2018-10-09T14:30:22.529Z,11.83
2018-10-09T14:32:51.079Z,14.13
2018-10-09T14:35:19.647Z,10.88
2018-10-09T14:37:48.342Z,12.80
2018-10-09T14:40:16.925Z,12.33
2018-10-09T14:42:45.599Z,13.70
2018-10-09T14:45:14.181Z,12.60
2018-10-09T14:47:42.712Z,14.55
2018-10-09T14:50:11.296Z,10.50
2018-10-09T14:52:39.760Z,12.40
2018-10-09T14:55:08.506Z,13.68
2018-10-09T14:57:37.562Z,11.57
2018-10-09T15:00:06.979Z,16.17
2018-10-09T15:02:35.744Z,13.50
2018-10-09T15:05:04.407Z,10.48
2018-10-09T15:07:32.940Z,12.20
2018-10-09T15:10:02.149Z,11.50
2018-10-09T15:12:30.769Z,13.13
2018-10-09T15:14:59.226Z,9.90
2018-10-09T15:17:27.768Z,12.05
2018-10-09T15:19:56.345Z,11.12
2018-10-09T15:22:24.876Z,11.12
2018-10-09T15:24:53.354Z,10.23
2018-10-09T15:27:22.740Z,11.13
2018-10-09T15:29:51.444Z,14.07
2018-10-09T15:32:19.978Z,11.08
2018-10-09T15:34:48.708Z,12.63
2018-10-09T15:37:17.683Z,12.15
2018-10-09T15:39:46.234Z,11.73
2018-10-09T15:42:15.025Z,13.48
2018-10-09T15:44:44.277Z,13.65
2018-10-09T15:47:13.422Z,16.07
2018-10-09T15:49:41.926Z,14.70
2018-10-09T15:52:10.828Z,12.70
2018-10-09T15:54:39.264Z,18.02
2018-10-09T15:57:08.517Z,15.45
2018-10-09T15:59:37.113Z,11.10
2018-10-09T16:02:05.698Z,16.00
2018-10-09T16:04:34.150Z,10.10
2018-10-09T16:07:02.693Z,12.95
2018-10-09T16:09:31.248Z,14.83
2018-10-09T16:12:00.432Z,18.23
2018-10-09T16:14:29.081Z,13.53
2018-10-09T16:16:57.855Z,14.60
2018-10-09T16:19:26.648Z,19.92
2018-10-09T16:21:56.185Z,12.85
2018-10-09T16:24:24.843Z,13.58
2018-10-09T16:26:53.365Z,13.65
2018-10-09T16:29:22.758Z,14.78
2018-10-09T16:31:51.737Z,15.90
2018-10-09T16:34:20.518Z,18.45
2018-10-09T16:36:49.016Z,17.30
2018-10-09T16:39:17.729Z,14.83
2018-10-09T16:41:46.424Z,17.87
2018-10-09T16:44:14.967Z,16.15
2018-10-09T16:46:43.669Z,15.58
2018-10-09T16:49:12.405Z,13.68
2018-10-09T16:51:41.024Z,16.00
2018-10-09T16:54:10.635Z,14.78
2018-10-09T16:56:39.444Z,17.23
2018-10-09T16:59:08.424Z,13.45
2018-10-09T17:01:37.248Z,13.40
2018-10-09T17:04:05.872Z,14.33
2018-10-09T17:06:35.194Z,14.83
2018-10-09T17:09:04.181Z,14.98
2018-10-09T17:11:32.769Z,18.85
2018-10-09T17:14:01.970Z,19.50
2018-10-09T17:16:31.422Z,17.50
2018-10-09T17:19:00.131Z,15.70
2018-10-09T17:21:28.941Z,18.48
2018-10-09T17:23:57.937Z,16.00
2018-10-09T17:26:26.425Z,18.75
2018-10-09T17:28:54.924Z,16.48
2018-10-09T17:31:23.471Z,19.00
2018-10-09T17:33:52.033Z,16.40
2018-10-09T17:36:20.654Z,16.00
2018-10-09T17:38:49.322Z,17.67
2018-10-09T17:41:18.441Z,19.25
2018-10-09T17:43:47.332Z,21.17
2018-10-09T17:46:17.071Z,20.47
2018-10-09T17:48:45.723Z,15.50
2018-10-09T17:51:15.031Z,18.77
2018-10-09T17:53:43.758Z,16.00
2018-10-09T17:56:12.533Z,21.17
2018-10-09T17:58:41.874Z,18.97
2018-10-09T18:01:10.394Z,16.40
2018-10-09T18:03:39.327Z,16.57
2018-10-09T18:06:07.959Z,16.47
2018-10-09T18:08:36.895Z,15.27
2018-10-09T18:11:05.623Z,16.70
2018-10-09T18:13:34.293Z,17.23
2018-10-09T18:16:03.354Z,16.33
2018-10-09T18:18:31.951Z,16.27
2018-10-09T18:21:00.607Z,15.97
2018-10-09T18:23:29.049Z,21.53
2018-10-09T18:25:57.537Z,20.40
2018-10-09T18:28:26.353Z,20.48
2018-10-09T18:30:55.252Z,21.47
2018-10-09T18:33:23.987Z,19.77
2018-10-09T18:35:52.909Z,18.83
2018-10-09T18:38:21.502Z,19.60
2018-10-09T18:40:50.371Z,22.73
2018-10-09T18:43:18.986Z,27.07
2018-10-09T18:45:47.526Z,27.73
2018-10-09T18:48:16.254Z,27.53
2018-10-09T18:50:45.052Z,30.08
2018-10-09T18:53:14.492Z,29.47
2018-10-09T18:55:43.086Z,28.30
2018-10-09T18:58:11.699Z,30.90
2018-10-09T19:00:40.198Z,29.83
2018-10-09T19:03:09.380Z,29.20
2018-10-09T19:05:38.090Z,30.53
2018-10-09T19:08:06.670Z,29.47
2018-10-09T19:10:35.526Z,30.33
2018-10-09T19:13:04.264Z,31.10
2018-10-09T19:15:32.775Z,28.80
2018-10-09T19:18:01.415Z,29.67
2018-10-09T19:20:29.952Z,30.37
2018-10-09T19:22:58.720Z,30.20
2018-10-09T19:25:27.280Z,31.00
2018-10-09T19:27:55.941Z,31.73
2018-10-09T19:30:24.680Z,30.20
2018-10-09T19:32:53.281Z,30.17
2018-10-09T19:35:29.642Z,33.37
2018-10-09T19:37:58.325Z,33.50
2018-10-09T19:40:27.006Z,34.67
2018-10-09T19:42:55.746Z,33.47
2018-10-09T19:45:25.398Z,34.83
2018-10-09T19:47:54.127Z,35.83
2018-10-09T19:50:23.305Z,40.70
2018-10-09T19:52:52.039Z,38.87
2018-10-09T19:55:20.750Z,35.57
2018-10-09T19:57:49.434Z,36.47
2018-10-09T20:00:18.145Z,37.43
2018-10-09T20:02:46.854Z,36.83
2018-10-09T20:05:15.555Z,36.03
2018-10-09T20:07:45.029Z,34.97
2018-10-09T20:10:13.911Z,36.90
2018-10-09T20:12:42.570Z,35.87
2018-10-09T20:15:11.327Z,35.03
2018-10-09T20:17:40.139Z,35.13
2018-10-09T20:20:08.841Z,33.97
2018-10-09T20:22:37.382Z,34.03
2018-10-09T20:25:07.063Z,36.98
2018-10-09T20:27:35.594Z,34.90
2018-10-09T20:30:04.286Z,33.57
2018-10-09T20:32:33.159Z,38.27
2018-10-09T20:35:01.703Z,36.50
2018-10-09T20:37:30.596Z,32.97
2018-10-09T20:39:59.296Z,39.17
2018-10-09T20:42:27.736Z,33.00
2018-10-09T20:44:56.339Z,32.73
2018-10-09T20:47:34.812Z,33.93
2018-10-09T20:50:04.058Z,33.43
2018-10-09T20:52:32.668Z,34.03
2018-10-09T20:55:01.367Z,34.20
2018-10-09T20:57:29.905Z,33.97
2018-10-09T20:59:58.831Z,36.20
2018-10-09T21:02:27.553Z,35.93
2018-10-09T21:04:56.125Z,33.20
2018-10-09T21:07:24.708Z,32.53
2018-10-09T21:09:53.466Z,32.23
2018-10-09T21:12:22.283Z,34.77
2018-10-09T21:14:51.524Z,37.50
2018-10-09T21:17:21.400Z,41.77
2018-10-09T21:19:50.504Z,33.33
2018-10-09T21:22:19.110Z,32.80
2018-10-09T21:24:47.666Z,32.03
2018-10-09T21:27:16.268Z,34.77
2018-10-09T21:29:44.968Z,30.83
2018-10-09T21:32:13.939Z,28.97
2018-10-09T21:34:42.606Z,33.57
2018-10-09T21:37:11.124Z,32.20
2018-10-09T21:39:39.844Z,31.83
2018-10-09T21:42:08.495Z,29.10
2018-10-09T21:44:37.177Z,29.33
2018-10-09T21:47:06.052Z,31.75
2018-10-09T21:49:34.750Z,31.67
2018-10-09T21:52:03.297Z,26.70
2018-10-09T21:54:31.905Z,28.60
2018-10-09T21:57:00.497Z,28.23
2018-10-09T21:59:29.124Z,29.97
2018-10-09T22:01:57.722Z,27.67
2018-10-09T22:04:26.374Z,29.43
2018-10-09T22:06:54.968Z,26.47
2018-10-09T22:09:23.507Z,25.83
2018-10-09T22:11:52.181Z,23.37
2018-10-09T22:14:20.815Z,27.90
2018-10-09T22:16:49.363Z,24.83
2018-10-09T22:19:17.882Z,24.13
2018-10-09T22:21:46.535Z,22.37
2018-10-09T22:24:15.149Z,22.10
2018-10-09T22:26:44.215Z,24.47
2018-10-09T22:29:12.686Z,23.47
2018-10-09T22:31:41.612Z,22.80
2018-10-09T22:34:10.075Z,25.13
2018-10-09T22:36:39.242Z,21.40
2018-10-09T22:39:09.192Z,23.70
2018-10-09T22:41:37.807Z,22.87
2018-10-09T22:44:07.182Z,22.00
2018-10-09T22:46:35.590Z,23.67
2018-10-09T22:49:04.196Z,24.97
2018-10-09T22:51:32.965Z,22.37
2018-10-09T22:54:01.439Z,25.30
2018-10-09T22:56:30.036Z,24.13
2018-10-09T22:58:58.627Z,25.10
2018-10-09T23:01:27.209Z,25.03
2018-10-09T23:03:55.815Z,25.00
2018-10-09T23:06:24.590Z,25.93
2018-10-09T23:08:53.072Z,23.57
2018-10-09T23:11:22.170Z,23.73
2018-10-09T23:13:50.792Z,25.57
2018-10-09T23:16:19.484Z,25.53
2018-10-09T23:18:48.045Z,27.03
2018-10-09T23:21:16.606Z,25.57
2018-10-09T23:23:45.162Z,25.67
2018-10-09T23:26:13.621Z,25.57
2018-10-09T23:28:42.129Z,23.50
2018-10-09T23:31:10.917Z,28.80
2018-10-09T23:33:39.452Z,26.20
2018-10-09T23:36:07.954Z,27.57
2018-10-09T23:38:36.438Z,26.80
2018-10-09T23:41:05.416Z,26.17
2018-10-09T23:43:34.167Z,29.10
2018-10-09T23:46:02.698Z,28.93
2018-10-09T23:48:31.994Z,30.03
2018-10-09T23:51:01.317Z,27.13
2018-10-09T23:53:29.928Z,27.10
2018-10-09T23:55:59.116Z,26.93
2018-10-09T23:58:34.122Z,25.60
